Ana Sayfa
METAR-TAF:

METAR-TAF

Havaalanları :

Catacamas, Honduras

Enlem: 14-54N, Boylam: 085-56W, yükseklik: 442 m

Güncel hava durumu gözlemi

Rapor saat 00:00 UTC de 6 saat ve 18 dakika önce yapıldı.
Rüzgar doğudan 4 kt
Sıcaklık 34°C
Nem 47%
Basınç 1011 hPa
Görüş mesafesi: 4000 m
3000 ft yükseklikte parçalı bulutlu
Duman,

METAR: MHCA 270000Z 09004KT 4000 FU SCT030 34/21 Q1011

Saat: 00:18 (06:18 UTC)


TAF: eksik

4.000'den fazla havaalanı için hava durumu gözlemleri ve tahminleri (METAR ve TAF raporları).

Kullanılabilir istasyonlar harita üzerinde sarı ve kırmızı noktalarla gösterilir.

İstasyonun adını görmek için fareyi noktanın üzerinde gezdirin.

Sonrasında hava gözlem ve tahminlerini görmek için tıklayın.

Haritayı değiştirmek için: yaklaştırmak için siyah artı işaretli yeşil düğmeye ve uzaklaştırmak için de eksi işaretli düğmeye hızla tıklayın; bitişik haritalar için yeşil okları kullanın.


METAR-TAF: